sensor_id;sensor_type;location;lat;lon;timestamp;P1;durP1;ratioP1;P2;durP2;ratioP2
52786;SDS011;38661;53.152;5.846;2023-08-06T00:00:25;11.82;;;9.40;;
52786;SDS011;38661;53.152;5.846;2023-08-06T00:02:51;8.10;;;7.13;;
52786;SDS011;38661;53.152;5.846;2023-08-06T00:05:16;14.98;;;11.60;;
52786;SDS011;38661;53.152;5.846;2023-08-06T00:07:48;12.07;;;10.63;;
52786;SDS011;38661;53.152;5.846;2023-08-06T00:10:14;12.73;;;11.38;;
52786;SDS011;38661;53.152;5.846;2023-08-06T00:12:40;19.95;;;13.70;;
52786;SDS011;38661;53.152;5.846;2023-08-06T00:15:06;20.35;;;14.20;;
52786;SDS011;38661;53.152;5.846;2023-08-06T00:17:33;18.13;;;14.30;;
52786;SDS011;38661;53.152;5.846;2023-08-06T00:19:59;18.35;;;15.63;;
52786;SDS011;38661;53.152;5.846;2023-08-06T00:22:37;17.83;;;14.75;;
52786;SDS011;38661;53.152;5.846;2023-08-06T00:25:03;19.08;;;14.27;;
52786;SDS011;38661;53.152;5.846;2023-08-06T00:27:30;13.93;;;11.30;;
52786;SDS011;38661;53.152;5.846;2023-08-06T00:29:55;16.85;;;14.23;;
52786;SDS011;38661;53.152;5.846;2023-08-06T00:32:21;18.33;;;13.90;;
52786;SDS011;38661;53.152;5.846;2023-08-06T00:34:47;22.30;;;16.38;;
52786;SDS011;38661;53.152;5.846;2023-08-06T00:37:15;18.17;;;14.80;;
52786;SDS011;38661;53.152;5.846;2023-08-06T00:39:41;15.00;;;12.77;;
52786;SDS011;38661;53.152;5.846;2023-08-06T00:42:08;17.77;;;13.60;;
52786;SDS011;38661;53.152;5.846;2023-08-06T00:44:34;18.65;;;14.95;;
52786;SDS011;38661;53.152;5.846;2023-08-06T00:46:59;17.35;;;14.07;;
52786;SDS011;38661;53.152;5.846;2023-08-06T00:49:26;16.20;;;13.63;;
52786;SDS011;38661;53.152;5.846;2023-08-06T00:51:52;21.15;;;14.52;;
52786;SDS011;38661;53.152;5.846;2023-08-06T00:54:18;17.73;;;14.27;;
52786;SDS011;38661;53.152;5.846;2023-08-06T00:56:43;19.70;;;15.18;;
52786;SDS011;38661;53.152;5.846;2023-08-06T00:59:10;20.48;;;16.13;;
52786;SDS011;38661;53.152;5.846;2023-08-06T01:01:37;19.10;;;14.18;;
52786;SDS011;38661;53.152;5.846;2023-08-06T01:04:03;18.05;;;14.68;;
52786;SDS011;38661;53.152;5.846;2023-08-06T01:06:39;17.80;;;14.48;;
52786;SDS011;38661;53.152;5.846;2023-08-06T01:09:13;18.75;;;13.25;;
52786;SDS011;38661;53.152;5.846;2023-08-06T01:12:04;17.38;;;12.40;;
52786;SDS011;38661;53.152;5.846;2023-08-06T01:17:29;16.90;;;12.77;;
52786;SDS011;38661;53.152;5.846;2023-08-06T01:19:55;22.67;;;15.75;;
52786;SDS011;38661;53.152;5.846;2023-08-06T01:22:21;19.88;;;15.32;;
52786;SDS011;38661;53.152;5.846;2023-08-06T01:24:48;20.58;;;14.07;;
52786;SDS011;38661;53.152;5.846;2023-08-06T01:30:17;18.77;;;14.60;;
52786;SDS011;38661;53.152;5.846;2023-08-06T01:32:48;14.68;;;12.68;;
52786;SDS011;38661;53.152;5.846;2023-08-06T01:35:18;21.17;;;15.75;;
52786;SDS011;38661;53.152;5.846;2023-08-06T01:37:46;17.85;;;14.32;;
52786;SDS011;38661;53.152;5.846;2023-08-06T01:40:13;22.80;;;15.43;;
52786;SDS011;38661;53.152;5.846;2023-08-06T01:42:39;19.52;;;15.05;;
52786;SDS011;38661;53.152;5.846;2023-08-06T01:45:08;13.65;;;12.07;;
52786;SDS011;38661;53.152;5.846;2023-08-06T01:47:35;16.38;;;13.32;;
52786;SDS011;38661;53.152;5.846;2023-08-06T01:50:01;19.42;;;14.85;;
52786;SDS011;38661;53.152;5.846;2023-08-06T01:52:27;18.00;;;14.35;;
52786;SDS011;38661;53.152;5.846;2023-08-06T01:54:53;14.13;;;12.57;;
52786;SDS011;38661;53.152;5.846;2023-08-06T01:57:19;18.42;;;13.98;;
52786;SDS011;38661;53.152;5.846;2023-08-06T01:59:44;21.20;;;13.90;;
52786;SDS011;38661;53.152;5.846;2023-08-06T02:02:10;17.48;;;14.00;;
52786;SDS011;38661;53.152;5.846;2023-08-06T02:04:36;16.33;;;12.98;;
52786;SDS011;38661;53.152;5.846;2023-08-06T02:07:01;18.92;;;14.68;;
52786;SDS011;38661;53.152;5.846;2023-08-06T02:09:27;18.88;;;14.48;;
52786;SDS011;38661;53.152;5.846;2023-08-06T02:11:53;17.63;;;14.02;;
52786;SDS011;38661;53.152;5.846;2023-08-06T02:14:18;20.35;;;15.45;;
52786;SDS011;38661;53.152;5.846;2023-08-06T02:16:44;16.95;;;13.98;;
52786;SDS011;38661;53.152;5.846;2023-08-06T02:19:10;18.02;;;15.38;;
52786;SDS011;38661;53.152;5.846;2023-08-06T02:21:35;19.08;;;14.00;;
52786;SDS011;38661;53.152;5.846;2023-08-06T02:24:01;20.05;;;15.00;;
52786;SDS011;38661;53.152;5.846;2023-08-06T02:26:27;18.92;;;14.13;;
52786;SDS011;38661;53.152;5.846;2023-08-06T02:28:53;19.42;;;13.98;;
52786;SDS011;38661;53.152;5.846;2023-08-06T02:31:18;19.48;;;16.00;;
52786;SDS011;38661;53.152;5.846;2023-08-06T02:33:44;17.83;;;13.52;;
52786;SDS011;38661;53.152;5.846;2023-08-06T02:36:10;13.52;;;10.73;;
52786;SDS011;38661;53.152;5.846;2023-08-06T02:38:35;19.70;;;15.73;;
52786;SDS011;38661;53.152;5.846;2023-08-06T02:41:04;15.15;;;13.25;;
52786;SDS011;38661;53.152;5.846;2023-08-06T02:43:30;20.70;;;16.35;;
52786;SDS011;38661;53.152;5.846;2023-08-06T02:45:56;21.90;;;15.77;;
52786;SDS011;38661;53.152;5.846;2023-08-06T02:48:25;14.95;;;13.35;;
52786;SDS011;38661;53.152;5.846;2023-08-06T02:50:51;16.63;;;14.68;;
52786;SDS011;38661;53.152;5.846;2023-08-06T02:53:16;17.75;;;14.25;;
52786;SDS011;38661;53.152;5.846;2023-08-06T02:55:46;17.67;;;13.88;;
52786;SDS011;38661;53.152;5.846;2023-08-06T02:58:15;20.30;;;15.50;;
52786;SDS011;38661;53.152;5.846;2023-08-06T03:00:42;17.05;;;14.32;;
52786;SDS011;38661;53.152;5.846;2023-08-06T03:03:09;15.05;;;12.25;;
52786;SDS011;38661;53.152;5.846;2023-08-06T03:05:35;18.42;;;14.35;;
52786;SDS011;38661;53.152;5.846;2023-08-06T03:08:00;12.23;;;11.00;;
52786;SDS011;38661;53.152;5.846;2023-08-06T03:10:26;17.50;;;12.80;;
52786;SDS011;38661;53.152;5.846;2023-08-06T03:12:52;17.05;;;13.45;;
52786;SDS011;38661;53.152;5.846;2023-08-06T03:15:18;16.80;;;13.70;;
52786;SDS011;38661;53.152;5.846;2023-08-06T03:17:43;17.80;;;13.48;;
52786;SDS011;38661;53.152;5.846;2023-08-06T03:20:09;15.77;;;12.77;;
52786;SDS011;38661;53.152;5.846;2023-08-06T03:22:35;20.08;;;13.57;;
52786;SDS011;38661;53.152;5.846;2023-08-06T03:25:01;16.65;;;11.75;;
52786;SDS011;38661;53.152;5.846;2023-08-06T03:27:27;15.68;;;11.75;;
52786;SDS011;38661;53.152;5.846;2023-08-06T03:29:53;17.17;;;12.85;;
52786;SDS011;38661;53.152;5.846;2023-08-06T03:32:18;14.27;;;12.00;;
52786;SDS011;38661;53.152;5.846;2023-08-06T03:34:44;15.88;;;13.10;;
52786;SDS011;38661;53.152;5.846;2023-08-06T03:37:10;16.58;;;12.88;;
52786;SDS011;38661;53.152;5.846;2023-08-06T03:39:36;17.20;;;12.88;;
52786;SDS011;38661;53.152;5.846;2023-08-06T03:42:01;13.93;;;11.60;;
52786;SDS011;38661;53.152;5.846;2023-08-06T03:44:27;20.90;;;13.63;;
52786;SDS011;38661;53.152;5.846;2023-08-06T03:46:53;14.65;;;11.35;;
52786;SDS011;38661;53.152;5.846;2023-08-06T03:49:19;15.50;;;12.60;;
52786;SDS011;38661;53.152;5.846;2023-08-06T03:51:44;13.60;;;12.07;;
52786;SDS011;38661;53.152;5.846;2023-08-06T03:54:11;14.80;;;12.80;;
52786;SDS011;38661;53.152;5.846;2023-08-06T03:56:36;20.13;;;14.75;;
52786;SDS011;38661;53.152;5.846;2023-08-06T03:59:02;17.40;;;13.70;;
52786;SDS011;38661;53.152;5.846;2023-08-06T04:01:28;17.98;;;13.35;;
52786;SDS011;38661;53.152;5.846;2023-08-06T04:03:53;19.15;;;14.25;;
52786;SDS011;38661;53.152;5.846;2023-08-06T04:06:22;15.95;;;12.70;;
52786;SDS011;38661;53.152;5.846;2023-08-06T04:08:47;15.15;;;11.93;;
52786;SDS011;38661;53.152;5.846;2023-08-06T04:11:13;16.38;;;13.25;;
52786;SDS011;38661;53.152;5.846;2023-08-06T04:13:41;16.30;;;12.45;;
52786;SDS011;38661;53.152;5.846;2023-08-06T04:16:08;20.33;;;14.52;;
52786;SDS011;38661;53.152;5.846;2023-08-06T04:18:34;20.98;;;14.80;;
52786;SDS011;38661;53.152;5.846;2023-08-06T04:21:01;19.30;;;14.98;;
52786;SDS011;38661;53.152;5.846;2023-08-06T04:23:28;18.58;;;14.57;;
52786;SDS011;38661;53.152;5.846;2023-08-06T04:25:57;18.70;;;15.15;;
52786;SDS011;38661;53.152;5.846;2023-08-06T04:28:23;20.02;;;14.82;;
52786;SDS011;38661;53.152;5.846;2023-08-06T04:30:49;15.38;;;12.23;;
52786;SDS011;38661;53.152;5.846;2023-08-06T04:33:14;20.20;;;15.25;;
52786;SDS011;38661;53.152;5.846;2023-08-06T04:35:40;14.35;;;11.23;;
52786;SDS011;38661;53.152;5.846;2023-08-06T04:38:06;14.27;;;12.77;;
52786;SDS011;38661;53.152;5.846;2023-08-06T04:40:35;21.10;;;16.02;;
52786;SDS011;38661;53.152;5.846;2023-08-06T04:43:01;12.90;;;11.15;;
52786;SDS011;38661;53.152;5.846;2023-08-06T04:45:27;21.23;;;14.82;;
52786;SDS011;38661;53.152;5.846;2023-08-06T04:47:53;22.80;;;15.15;;
52786;SDS011;38661;53.152;5.846;2023-08-06T04:50:21;18.10;;;13.68;;
52786;SDS011;38661;53.152;5.846;2023-08-06T04:52:47;16.05;;;12.75;;
52786;SDS011;38661;53.152;5.846;2023-08-06T04:55:13;20.58;;;15.88;;
52786;SDS011;38661;53.152;5.846;2023-08-06T04:57:38;19.30;;;15.57;;
52786;SDS011;38661;53.152;5.846;2023-08-06T05:00:04;18.13;;;14.13;;
52786;SDS011;38661;53.152;5.846;2023-08-06T05:02:31;21.08;;;13.70;;
52786;SDS011;38661;53.152;5.846;2023-08-06T05:04:59;23.10;;;15.98;;
52786;SDS011;38661;53.152;5.846;2023-08-06T05:07:25;29.40;;;15.88;;
52786;SDS011;38661;53.152;5.846;2023-08-06T05:09:51;22.88;;;17.20;;
52786;SDS011;38661;53.152;5.846;2023-08-06T05:12:16;17.92;;;15.55;;
52786;SDS011;38661;53.152;5.846;2023-08-06T05:14:42;20.02;;;16.02;;
52786;SDS011;38661;53.152;5.846;2023-08-06T05:17:08;21.70;;;16.92;;
52786;SDS011;38661;53.152;5.846;2023-08-06T05:19:33;16.90;;;14.52;;
52786;SDS011;38661;53.152;5.846;2023-08-06T05:21:59;18.00;;;14.20;;
52786;SDS011;38661;53.152;5.846;2023-08-06T05:24:26;15.57;;;13.00;;
52786;SDS011;38661;53.152;5.846;2023-08-06T05:26:51;22.95;;;16.65;;
52786;SDS011;38661;53.152;5.846;2023-08-06T05:29:17;23.23;;;16.95;;
52786;SDS011;38661;53.152;5.846;2023-08-06T05:31:43;19.75;;;16.27;;
52786;SDS011;38661;53.152;5.846;2023-08-06T05:34:08;21.05;;;16.17;;
52786;SDS011;38661;53.152;5.846;2023-08-06T05:36:34;15.93;;;12.93;;
52786;SDS011;38661;53.152;5.846;2023-08-06T05:39:00;13.13;;;11.00;;
52786;SDS011;38661;53.152;5.846;2023-08-06T05:41:25;20.40;;;14.95;;
52786;SDS011;38661;53.152;5.846;2023-08-06T05:43:51;17.48;;;15.30;;
52786;SDS011;38661;53.152;5.846;2023-08-06T05:46:17;17.80;;;15.35;;
52786;SDS011;38661;53.152;5.846;2023-08-06T05:48:42;15.13;;;13.55;;
52786;SDS011;38661;53.152;5.846;2023-08-06T05:51:08;16.05;;;13.48;;
52786;SDS011;38661;53.152;5.846;2023-08-06T05:53:34;16.50;;;14.40;;
52786;SDS011;38661;53.152;5.846;2023-08-06T05:55:59;14.88;;;12.85;;
52786;SDS011;38661;53.152;5.846;2023-08-06T05:58:25;18.55;;;14.75;;
52786;SDS011;38661;53.152;5.846;2023-08-06T06:00:54;15.40;;;12.35;;
52786;SDS011;38661;53.152;5.846;2023-08-06T06:03:19;13.75;;;12.35;;
52786;SDS011;38661;53.152;5.846;2023-08-06T06:05:45;15.15;;;13.15;;
52786;SDS011;38661;53.152;5.846;2023-08-06T06:08:11;16.63;;;13.30;;
52786;SDS011;38661;53.152;5.846;2023-08-06T06:10:37;13.35;;;10.70;;
52786;SDS011;38661;53.152;5.846;2023-08-06T06:13:02;15.07;;;13.00;;
52786;SDS011;38661;53.152;5.846;2023-08-06T06:15:28;15.02;;;13.35;;
52786;SDS011;38661;53.152;5.846;2023-08-06T06:17:54;12.57;;;11.20;;
52786;SDS011;38661;53.152;5.846;2023-08-06T06:20:19;14.40;;;12.30;;
52786;SDS011;38661;53.152;5.846;2023-08-06T06:22:45;9.75;;;8.15;;
52786;SDS011;38661;53.152;5.846;2023-08-06T06:25:11;10.10;;;9.10;;
52786;SDS011;38661;53.152;5.846;2023-08-06T06:27:36;11.30;;;10.20;;
52786;SDS011;38661;53.152;5.846;2023-08-06T06:30:02;13.50;;;10.20;;
52786;SDS011;38661;53.152;5.846;2023-08-06T06:32:29;9.63;;;8.68;;
52786;SDS011;38661;53.152;5.846;2023-08-06T06:34:54;11.48;;;10.38;;
52786;SDS011;38661;53.152;5.846;2023-08-06T06:37:20;11.63;;;10.43;;
52786;SDS011;38661;53.152;5.846;2023-08-06T06:39:46;12.57;;;8.75;;
52786;SDS011;38661;53.152;5.846;2023-08-06T06:42:12;12.95;;;10.07;;
52786;SDS011;38661;53.152;5.846;2023-08-06T06:44:37;15.40;;;10.63;;
52786;SDS011;38661;53.152;5.846;2023-08-06T06:47:03;13.05;;;9.98;;
52786;SDS011;38661;53.152;5.846;2023-08-06T06:49:29;13.02;;;10.27;;
52786;SDS011;38661;53.152;5.846;2023-08-06T06:51:55;9.18;;;8.15;;
52786;SDS011;38661;53.152;5.846;2023-08-06T06:54:20;10.82;;;9.73;;
52786;SDS011;38661;53.152;5.846;2023-08-06T06:56:46;10.02;;;8.85;;
52786;SDS011;38661;53.152;5.846;2023-08-06T06:59:12;9.35;;;8.38;;
52786;SDS011;38661;53.152;5.846;2023-08-06T07:01:37;14.82;;;9.13;;
52786;SDS011;38661;53.152;5.846;2023-08-06T07:04:03;10.07;;;8.88;;
52786;SDS011;38661;53.152;5.846;2023-08-06T07:06:30;9.88;;;8.77;;
52786;SDS011;38661;53.152;5.846;2023-08-06T07:08:56;13.15;;;8.80;;
52786;SDS011;38661;53.152;5.846;2023-08-06T07:11:22;9.95;;;8.65;;
52786;SDS011;38661;53.152;5.846;2023-08-06T07:13:49;9.90;;;8.90;;
52786;SDS011;38661;53.152;5.846;2023-08-06T07:16:21;10.68;;;9.50;;
52786;SDS011;38661;53.152;5.846;2023-08-06T07:18:46;12.93;;;10.23;;
52786;SDS011;38661;53.152;5.846;2023-08-06T07:21:12;10.20;;;9.02;;
52786;SDS011;38661;53.152;5.846;2023-08-06T07:23:38;11.30;;;8.60;;
52786;SDS011;38661;53.152;5.846;2023-08-06T07:26:03;8.00;;;7.20;;
52786;SDS011;38661;53.152;5.846;2023-08-06T07:28:29;9.63;;;7.88;;
52786;SDS011;38661;53.152;5.846;2023-08-06T07:30:55;8.57;;;7.78;;
52786;SDS011;38661;53.152;5.846;2023-08-06T07:33:20;9.98;;;8.38;;
52786;SDS011;38661;53.152;5.846;2023-08-06T07:35:46;10.25;;;8.93;;
52786;SDS011;38661;53.152;5.846;2023-08-06T07:38:12;12.68;;;9.95;;
52786;SDS011;38661;53.152;5.846;2023-08-06T07:40:38;11.02;;;9.10;;
52786;SDS011;38661;53.152;5.846;2023-08-06T07:43:06;8.65;;;7.82;;
52786;SDS011;38661;53.152;5.846;2023-08-06T07:45:32;8.82;;;7.95;;
52786;SDS011;38661;53.152;5.846;2023-08-06T07:48:02;9.80;;;8.80;;
52786;SDS011;38661;53.152;5.846;2023-08-06T07:50:28;8.75;;;7.85;;
52786;SDS011;38661;53.152;5.846;2023-08-06T07:52:54;8.27;;;7.47;;
52786;SDS011;38661;53.152;5.846;2023-08-06T07:55:22;9.10;;;7.80;;
52786;SDS011;38661;53.152;5.846;2023-08-06T07:57:48;9.80;;;7.60;;
52786;SDS011;38661;53.152;5.846;2023-08-06T08:00:13;8.35;;;7.43;;
52786;SDS011;38661;53.152;5.846;2023-08-06T08:02:39;8.32;;;6.93;;
52786;SDS011;38661;53.152;5.846;2023-08-06T08:05:05;7.43;;;6.55;;
52786;SDS011;38661;53.152;5.846;2023-08-06T08:07:33;7.50;;;6.22;;
52786;SDS011;38661;53.152;5.846;2023-08-06T08:09:59;7.20;;;6.40;;
52786;SDS011;38661;53.152;5.846;2023-08-06T08:12:24;8.13;;;6.57;;
52786;SDS011;38661;53.152;5.846;2023-08-06T08:14:50;8.15;;;5.95;;
52786;SDS011;38661;53.152;5.846;2023-08-06T08:17:16;6.32;;;5.68;;
52786;SDS011;38661;53.152;5.846;2023-08-06T08:19:41;6.60;;;4.85;;
52786;SDS011;38661;53.152;5.846;2023-08-06T08:22:08;5.38;;;4.88;;
52786;SDS011;38661;53.152;5.846;2023-08-06T08:24:34;9.15;;;4.20;;
52786;SDS011;38661;53.152;5.846;2023-08-06T08:27:00;5.75;;;4.15;;
52786;SDS011;38661;53.152;5.846;2023-08-06T08:29:25;5.78;;;4.03;;
52786;SDS011;38661;53.152;5.846;2023-08-06T08:31:51;4.95;;;4.32;;
52786;SDS011;38661;53.152;5.846;2023-08-06T08:34:17;6.20;;;4.47;;
52786;SDS011;38661;53.152;5.846;2023-08-06T08:36:43;4.50;;;3.72;;
52786;SDS011;38661;53.152;5.846;2023-08-06T08:39:12;5.25;;;4.75;;
52786;SDS011;38661;53.152;5.846;2023-08-06T08:41:40;4.13;;;3.63;;
52786;SDS011;38661;53.152;5.846;2023-08-06T08:44:08;6.65;;;3.75;;
52786;SDS011;38661;53.152;5.846;2023-08-06T08:46:35;4.25;;;3.45;;
52786;SDS011;38661;53.152;5.846;2023-08-06T08:49:03;4.30;;;3.50;;
52786;SDS011;38661;53.152;5.846;2023-08-06T08:51:29;5.45;;;3.40;;
52786;SDS011;38661;53.152;5.846;2023-08-06T08:53:55;6.40;;;3.40;;
52786;SDS011;38661;53.152;5.846;2023-08-06T08:56:22;5.32;;;3.45;;
52786;SDS011;38661;53.152;5.846;2023-08-06T08:58:49;4.30;;;3.83;;
52786;SDS011;38661;53.152;5.846;2023-08-06T09:01:16;4.68;;;3.42;;
52786;SDS011;38661;53.152;5.846;2023-08-06T09:03:43;4.38;;;2.90;;
52786;SDS011;38661;53.152;5.846;2023-08-06T09:06:10;4.35;;;3.00;;
52786;SDS011;38661;53.152;5.846;2023-08-06T09:08:47;3.25;;;2.88;;
52786;SDS011;38661;53.152;5.846;2023-08-06T09:11:24;4.13;;;2.55;;
52786;SDS011;38661;53.152;5.846;2023-08-06T09:13:51;4.07;;;2.40;;
52786;SDS011;38661;53.152;5.846;2023-08-06T09:16:19;4.80;;;2.60;;
52786;SDS011;38661;53.152;5.846;2023-08-06T09:18:44;3.55;;;2.85;;
52786;SDS011;38661;53.152;5.846;2023-08-06T09:21:13;3.47;;;2.72;;
52786;SDS011;38661;53.152;5.846;2023-08-06T09:23:41;3.08;;;2.60;;
52786;SDS011;38661;53.152;5.846;2023-08-06T09:26:07;3.80;;;2.55;;
52786;SDS011;38661;53.152;5.846;2023-08-06T09:28:37;4.13;;;2.53;;
52786;SDS011;38661;53.152;5.846;2023-08-06T09:31:04;3.20;;;2.83;;
52786;SDS011;38661;53.152;5.846;2023-08-06T09:33:29;4.85;;;2.65;;
52786;SDS011;38661;53.152;5.846;2023-08-06T09:35:55;3.97;;;2.55;;
52786;SDS011;38661;53.152;5.846;2023-08-06T09:38:21;3.78;;;2.75;;
52786;SDS011;38661;53.152;5.846;2023-08-06T09:40:47;6.75;;;2.65;;
52786;SDS011;38661;53.152;5.846;2023-08-06T09:43:12;4.68;;;2.65;;
52786;SDS011;38661;53.152;5.846;2023-08-06T09:45:39;3.55;;;2.35;;
52786;SDS011;38661;53.152;5.846;2023-08-06T09:48:05;2.70;;;2.08;;
52786;SDS011;38661;53.152;5.846;2023-08-06T09:50:33;2.70;;;2.25;;
52786;SDS011;38661;53.152;5.846;2023-08-06T09:53:01;4.18;;;2.50;;
52786;SDS011;38661;53.152;5.846;2023-08-06T09:55:29;2.58;;;2.38;;
52786;SDS011;38661;53.152;5.846;2023-08-06T09:57:55;3.30;;;2.30;;
52786;SDS011;38661;53.152;5.846;2023-08-06T10:00:21;3.72;;;2.40;;
52786;SDS011;38661;53.152;5.846;2023-08-06T10:02:48;3.35;;;2.70;;
52786;SDS011;38661;53.152;5.846;2023-08-06T10:05:15;3.22;;;2.50;;
52786;SDS011;38661;53.152;5.846;2023-08-06T10:07:42;2.85;;;2.53;;
52786;SDS011;38661;53.152;5.846;2023-08-06T10:10:09;4.90;;;3.10;;
52786;SDS011;38661;53.152;5.846;2023-08-06T10:12:37;3.90;;;2.83;;
52786;SDS011;38661;53.152;5.846;2023-08-06T10:15:09;3.10;;;2.70;;
52786;SDS011;38661;53.152;5.846;2023-08-06T10:17:37;2.97;;;2.60;;
52786;SDS011;38661;53.152;5.846;2023-08-06T10:20:05;3.90;;;3.17;;
52786;SDS011;38661;53.152;5.846;2023-08-06T10:22:32;3.70;;;2.72;;
52786;SDS011;38661;53.152;5.846;2023-08-06T10:24:59;3.85;;;2.78;;
52786;SDS011;38661;53.152;5.846;2023-08-06T10:27:33;3.72;;;2.67;;
52786;SDS011;38661;53.152;5.846;2023-08-06T10:32:57;3.25;;;2.60;;
52786;SDS011;38661;53.152;5.846;2023-08-06T10:35:31;4.57;;;2.58;;
52786;SDS011;38661;53.152;5.846;2023-08-06T10:37:57;4.32;;;3.25;;
52786;SDS011;38661;53.152;5.846;2023-08-06T10:40:32;6.07;;;3.90;;
52786;SDS011;38661;53.152;5.846;2023-08-06T10:42:59;6.47;;;3.13;;
52786;SDS011;38661;53.152;5.846;2023-08-06T10:45:26;5.15;;;2.92;;
52786;SDS011;38661;53.152;5.846;2023-08-06T10:47:54;4.28;;;2.63;;
52786;SDS011;38661;53.152;5.846;2023-08-06T10:50:23;3.53;;;2.28;;
52786;SDS011;38661;53.152;5.846;2023-08-06T10:52:50;3.72;;;2.47;;
52786;SDS011;38661;53.152;5.846;2023-08-06T10:55:23;3.80;;;2.78;;
52786;SDS011;38661;53.152;5.846;2023-08-06T11:00:16;9.55;;;3.40;;
52786;SDS011;38661;53.152;5.846;2023-08-06T11:02:41;5.20;;;3.28;;
52786;SDS011;38661;53.152;5.846;2023-08-06T11:05:09;15.05;;;6.60;;
52786;SDS011;38661;53.152;5.846;2023-08-06T11:07:36;6.45;;;3.67;;
52786;SDS011;38661;53.152;5.846;2023-08-06T11:10:03;5.03;;;2.95;;
52786;SDS011;38661;53.152;5.846;2023-08-06T11:12:30;4.05;;;3.13;;
52786;SDS011;38661;53.152;5.846;2023-08-06T11:14:56;3.90;;;2.63;;
52786;SDS011;38661;53.152;5.846;2023-08-06T11:17:22;4.32;;;2.80;;
52786;SDS011;38661;53.152;5.846;2023-08-06T11:19:48;3.92;;;3.42;;
52786;SDS011;38661;53.152;5.846;2023-08-06T11:22:15;5.72;;;3.83;;
52786;SDS011;38661;53.152;5.846;2023-08-06T11:24:42;4.00;;;3.28;;
52786;SDS011;38661;53.152;5.846;2023-08-06T11:27:14;7.03;;;4.50;;
52786;SDS011;38661;53.152;5.846;2023-08-06T11:29:41;4.97;;;3.05;;
52786;SDS011;38661;53.152;5.846;2023-08-06T11:32:08;6.10;;;3.65;;
52786;SDS011;38661;53.152;5.846;2023-08-06T11:34:35;5.78;;;3.90;;
52786;SDS011;38661;53.152;5.846;2023-08-06T11:37:05;4.78;;;3.50;;
52786;SDS011;38661;53.152;5.846;2023-08-06T11:39:35;5.20;;;3.33;;
52786;SDS011;38661;53.152;5.846;2023-08-06T11:42:05;6.38;;;3.88;;
52786;SDS011;38661;53.152;5.846;2023-08-06T11:44:32;4.10;;;3.55;;
52786;SDS011;38661;53.152;5.846;2023-08-06T11:47:00;5.40;;;3.65;;
52786;SDS011;38661;53.152;5.846;2023-08-06T11:52:19;5.78;;;3.40;;
52786;SDS011;38661;53.152;5.846;2023-08-06T11:55:09;5.32;;;3.92;;
52786;SDS011;38661;53.152;5.846;2023-08-06T11:57:37;4.25;;;3.28;;
52786;SDS011;38661;53.152;5.846;2023-08-06T12:00:05;3.50;;;3.20;;
52786;SDS011;38661;53.152;5.846;2023-08-06T12:02:35;8.63;;;4.35;;
52786;SDS011;38661;53.152;5.846;2023-08-06T12:07:51;3.65;;;2.92;;
52786;SDS011;38661;53.152;5.846;2023-08-06T12:10:19;6.13;;;3.10;;
52786;SDS011;38661;53.152;5.846;2023-08-06T12:12:48;4.07;;;3.22;;
52786;SDS011;38661;53.152;5.846;2023-08-06T12:15:15;4.93;;;3.33;;
52786;SDS011;38661;53.152;5.846;2023-08-06T12:17:41;5.50;;;3.75;;
52786;SDS011;38661;53.152;5.846;2023-08-06T12:20:07;6.00;;;4.15;;
52786;SDS011;38661;53.152;5.846;2023-08-06T12:22:34;6.15;;;4.15;;
52786;SDS011;38661;53.152;5.846;2023-08-06T12:25:01;5.20;;;3.60;;
52786;SDS011;38661;53.152;5.846;2023-08-06T12:27:34;5.23;;;3.20;;
52786;SDS011;38661;53.152;5.846;2023-08-06T12:30:00;5.72;;;3.70;;
52786;SDS011;38661;53.152;5.846;2023-08-06T12:32:26;6.13;;;4.22;;
52786;SDS011;38661;53.152;5.846;2023-08-06T12:34:51;3.92;;;3.53;;
52786;SDS011;38661;53.152;5.846;2023-08-06T12:37:17;4.43;;;3.13;;
52786;SDS011;38661;53.152;5.846;2023-08-06T12:39:43;4.80;;;4.30;;
52786;SDS011;38661;53.152;5.846;2023-08-06T12:42:09;4.47;;;3.40;;
52786;SDS011;38661;53.152;5.846;2023-08-06T12:44:35;4.65;;;3.47;;
52786;SDS011;38661;53.152;5.846;2023-08-06T12:47:01;3.85;;;3.47;;
52786;SDS011;38661;53.152;5.846;2023-08-06T12:49:27;6.05;;;3.67;;
52786;SDS011;38661;53.152;5.846;2023-08-06T12:51:54;5.32;;;4.63;;
52786;SDS011;38661;53.152;5.846;2023-08-06T12:54:20;4.78;;;4.00;;
52786;SDS011;38661;53.152;5.846;2023-08-06T12:56:46;4.47;;;4.03;;
52786;SDS011;38661;53.152;5.846;2023-08-06T12:59:13;5.45;;;4.28;;
52786;SDS011;38661;53.152;5.846;2023-08-06T13:01:40;5.90;;;3.55;;
52786;SDS011;38661;53.152;5.846;2023-08-06T13:04:06;3.65;;;3.08;;
52786;SDS011;38661;53.152;5.846;2023-08-06T13:06:31;5.70;;;4.05;;
52786;SDS011;38661;53.152;5.846;2023-08-06T13:09:08;5.82;;;4.20;;
52786;SDS011;38661;53.152;5.846;2023-08-06T13:11:35;4.22;;;3.47;;
52786;SDS011;38661;53.152;5.846;2023-08-06T13:16:33;5.50;;;3.58;;
52786;SDS011;38661;53.152;5.846;2023-08-06T13:18:59;3.75;;;3.40;;
52786;SDS011;38661;53.152;5.846;2023-08-06T13:21:31;4.45;;;4.03;;
52786;SDS011;38661;53.152;5.846;2023-08-06T13:24:17;4.25;;;3.85;;
52786;SDS011;38661;53.152;5.846;2023-08-06T13:26:44;5.15;;;3.33;;
52786;SDS011;38661;53.152;5.846;2023-08-06T13:29:10;4.47;;;2.97;;
52786;SDS011;38661;53.152;5.846;2023-08-06T13:31:37;4.47;;;3.25;;
52786;SDS011;38661;53.152;5.846;2023-08-06T13:34:03;4.15;;;3.30;;
52786;SDS011;38661;53.152;5.846;2023-08-06T13:36:29;4.18;;;3.22;;
52786;SDS011;38661;53.152;5.846;2023-08-06T13:38:56;6.18;;;3.03;;
52786;SDS011;38661;53.152;5.846;2023-08-06T13:41:22;6.80;;;3.05;;
52786;SDS011;38661;53.152;5.846;2023-08-06T13:43:48;9.10;;;3.78;;
52786;SDS011;38661;53.152;5.846;2023-08-06T13:46:14;3.90;;;3.38;;
52786;SDS011;38661;53.152;5.846;2023-08-06T13:48:42;4.65;;;3.58;;
52786;SDS011;38661;53.152;5.846;2023-08-06T13:51:09;4.50;;;3.10;;
52786;SDS011;38661;53.152;5.846;2023-08-06T13:53:36;4.13;;;3.38;;
52786;SDS011;38661;53.152;5.846;2023-08-06T13:56:02;4.50;;;3.22;;
52786;SDS011;38661;53.152;5.846;2023-08-06T13:58:28;3.90;;;2.95;;
52786;SDS011;38661;53.152;5.846;2023-08-06T14:00:53;4.78;;;2.70;;
52786;SDS011;38661;53.152;5.846;2023-08-06T14:03:19;4.03;;;3.58;;
52786;SDS011;38661;53.152;5.846;2023-08-06T14:05:46;4.45;;;3.53;;
52786;SDS011;38661;53.152;5.846;2023-08-06T14:08:11;3.50;;;3.20;;
52786;SDS011;38661;53.152;5.846;2023-08-06T14:10:38;3.10;;;2.80;;
52786;SDS011;38661;53.152;5.846;2023-08-06T14:13:04;3.45;;;3.08;;
52786;SDS011;38661;53.152;5.846;2023-08-06T14:15:30;4.00;;;2.90;;
52786;SDS011;38661;53.152;5.846;2023-08-06T14:17:56;4.65;;;3.10;;
52786;SDS011;38661;53.152;5.846;2023-08-06T14:20:21;6.65;;;3.30;;
52786;SDS011;38661;53.152;5.846;2023-08-06T14:22:48;8.80;;;3.80;;
52786;SDS011;38661;53.152;5.846;2023-08-06T14:25:14;4.28;;;3.00;;
52786;SDS011;38661;53.152;5.846;2023-08-06T14:27:39;4.88;;;3.25;;
52786;SDS011;38661;53.152;5.846;2023-08-06T14:30:06;6.43;;;3.65;;
52786;SDS011;38661;53.152;5.846;2023-08-06T14:32:32;3.00;;;2.50;;
52786;SDS011;38661;53.152;5.846;2023-08-06T14:34:58;5.43;;;2.92;;
52786;SDS011;38661;53.152;5.846;2023-08-06T14:37:24;3.78;;;2.90;;
52786;SDS011;38661;53.152;5.846;2023-08-06T14:39:50;4.35;;;2.60;;
52786;SDS011;38661;53.152;5.846;2023-08-06T14:42:17;3.53;;;2.10;;
52786;SDS011;38661;53.152;5.846;2023-08-06T14:44:42;3.15;;;2.72;;
52786;SDS011;38661;53.152;5.846;2023-08-06T14:47:08;3.97;;;2.38;;
52786;SDS011;38661;53.152;5.846;2023-08-06T14:49:34;4.10;;;2.53;;
52786;SDS011;38661;53.152;5.846;2023-08-06T14:51:59;6.57;;;3.15;;